Time;durP1;ratioP1;P1;durP2;ratioP2;P2;SDS_P1;SDS_P2;PMS_P1;PMS_P2;Temp;Humidity;BMP_temperature;BMP_pressure;BME280_temperature;BME280_humidity;BME280_pressure;Samples;Min_cycle;Max_cycle;Signal;HPM_P1;HPM_P2
2021/07/20 00:42:34;;;;;;;19.77;9.82;;;18.90;99.90;;;;;;4991501;28;20073;-73
2021/07/20 00:45:00;;;;;;;18.13;9.18;;;18.60;99.90;;;;;;5014300;28;20137;-73
2021/07/20 00:47:26;;;;;;;14.98;9.05;;;18.50;99.90;;;;;;5014203;28;20474;-73
2021/07/20 00:49:52;;;;;;;17.08;9.18;;;18.50;99.90;;;;;;5014177;28;20048;-73
2021/07/20 00:52:18;;;;;;;17.25;9.23;;;18.50;99.90;;;;;;5014654;28;20030;-73
2021/07/20 00:54:44;;;;;;;18.42;10.30;;;18.40;99.90;;;;;;5012869;28;20030;-73
2021/07/20 00:57:10;;;;;;;18.08;9.75;;;18.40;99.90;;;;;;5013565;28;20030;-73
2021/07/20 00:59:37;;;;;;;19.40;10.15;;;18.40;99.90;;;;;;5012761;28;20038;-73
2021/07/20 01:02:05;;;;;;;16.65;9.23;;;18.20;99.90;;;;;;5013107;28;20157;-73
2021/07/20 01:04:32;;;;;;;15.35;9.38;;;18.30;99.90;;;;;;5013007;28;20041;-73
2021/07/20 01:07:00;;;;;;;19.35;10.13;;;18.30;99.90;;;;;;4996510;28;20065;-74
2021/07/20 01:09:28;;;;;;;16.40;9.23;;;18.30;99.90;;;;;;5014253;28;20033;-73
2021/07/20 01:11:55;;;;;;;16.85;9.30;;;18.10;99.90;;;;;;5012630;28;20046;-73
2021/07/20 01:14:22;;;;;;;18.17;8.75;;;18.10;99.90;;;;;;5014215;28;20057;-73
2021/07/20 01:16:50;;;;;;;17.80;9.45;;;18.00;99.90;;;;;;5012474;28;20596;-73
2021/07/20 01:19:17;;;;;;;16.40;9.68;;;17.80;99.90;;;;;;5012685;28;20038;-73
2021/07/20 01:21:43;;;;;;;17.05;9.60;;;18.00;99.90;;;;;;5012473;28;20394;-73
2021/07/20 01:24:17;;;;;;;17.20;10.07;;;17.90;99.90;;;;;;4996154;28;20026;-73
2021/07/20 01:26:45;;;;;;;19.17;10.23;;;17.90;99.90;;;;;;5012708;28;20038;-73
2021/07/20 01:29:12;;;;;;;14.57;9.18;;;17.80;99.90;;;;;;5013617;28;20100;-73
2021/07/20 01:31:42;;;;;;;14.63;9.15;;;17.80;99.90;;;;;;5012251;28;20030;-73
2021/07/20 01:34:13;;;;;;;16.27;9.05;;;17.80;99.90;;;;;;5012321;28;20395;-73
2021/07/20 01:36:41;;;;;;;17.63;9.38;;;17.60;99.90;;;;;;5012298;28;20056;-73
2021/07/20 01:39:11;;;;;;;16.45;8.95;;;17.50;99.90;;;;;;5013374;28;20387;-73
2021/07/20 01:41:40;;;;;;;17.35;9.10;;;17.60;99.90;;;;;;5013220;28;20030;-73
2021/07/20 01:44:09;;;;;;;14.00;8.93;;;17.10;99.90;;;;;;4995811;28;20050;-73
2021/07/20 01:46:38;;;;;;;15.90;8.75;;;17.40;99.90;;;;;;5012083;28;20041;-73
2021/07/20 01:49:11;;;;;;;18.77;9.32;;;17.50;99.90;;;;;;5013272;28;20430;-73
2021/07/20 01:51:37;;;;;;;17.48;8.07;;;17.50;99.90;;;;;;5012020;28;20072;-73
2021/07/20 01:54:05;;;;;;;19.42;9.02;;;17.60;99.90;;;;;;4995575;28;20030;-73
2021/07/20 01:56:31;;;;;;;18.23;9.30;;;17.60;99.90;;;;;;5013257;28;20030;-73
2021/07/20 01:58:57;;;;;;;20.08;9.77;;;17.40;99.90;;;;;;5011792;28;20498;-73
2021/07/20 02:01:40;;;;;;;18.55;9.68;;;17.40;99.90;;;;;;5013344;28;20088;-73
2021/07/20 02:09:25;;;;;;;19.75;10.63;;;17.30;99.90;;;;;;5011886;28;20349;-73
2021/07/20 02:11:54;;;;;;;19.00;10.07;;;17.20;99.90;;;;;;5011872;28;20026;-73
2021/07/20 02:14:27;;;;;;;19.88;10.50;;;17.10;99.90;;;;;;5011589;28;20541;-73
2021/07/20 02:16:56;;;;;;;18.20;10.10;;;17.10;99.90;;;;;;5011478;28;20030;-73
2021/07/20 02:19:36;;;;;;;16.35;9.70;;;17.20;99.90;;;;;;4995266;28;20115;-73
2021/07/20 02:22:04;;;;;;;18.88;9.57;;;17.10;99.90;;;;;;4995768;28;20121;-73
2021/07/20 02:24:33;;;;;;;18.67;10.32;;;17.10;99.90;;;;;;5011264;28;20034;-73
2021/07/20 02:27:03;;;;;;;18.73;11.10;;;17.10;99.90;;;;;;5012796;28;20030;-73
2021/07/20 02:29:30;;;;;;;17.15;9.48;;;17.10;99.90;;;;;;5012657;28;20091;-73
2021/07/20 02:32:01;;;;;;;19.77;9.68;;;17.00;99.90;;;;;;5012301;28;20034;-73
2021/07/20 02:34:30;;;;;;;17.90;10.48;;;16.80;99.90;;;;;;5011220;28;20034;-73
2021/07/20 02:36:57;;;;;;;19.63;10.15;;;16.70;99.90;;;;;;4994959;28;20501;-73
2021/07/20 02:39:24;;;;;;;17.35;9.80;;;16.70;99.90;;;;;;5012701;28;20478;-73
2021/07/20 02:41:54;;;;;;;19.65;10.63;;;16.80;99.90;;;;;;5011099;28;20042;-73
2021/07/20 02:44:22;;;;;;;17.42;10.20;;;16.80;99.90;;;;;;5012297;28;20045;-73
2021/07/20 02:46:48;;;;;;;18.25;9.90;;;16.80;99.90;;;;;;5011146;28;20037;-73
2021/07/20 02:49:16;;;;;;;16.42;9.38;;;16.70;99.90;;;;;;5011356;28;20026;-73
2021/07/20 02:51:46;;;;;;;19.05;9.70;;;16.80;99.90;;;;;;5012200;28;20134;-73
2021/07/20 02:54:12;;;;;;;16.83;10.35;;;16.70;99.90;;;;;;5011375;28;20034;-73
2021/07/20 02:56:42;;;;;;;19.55;10.50;;;16.50;99.90;;;;;;5011213;28;20561;-73
2021/07/20 02:59:10;;;;;;;15.73;9.23;;;16.50;99.90;;;;;;5011094;28;20026;-73
2021/07/20 03:01:39;;;;;;;15.70;9.45;;;16.50;99.90;;;;;;5011009;28;20069;-73
2021/07/20 03:04:07;;;;;;;20.67;11.18;;;16.50;99.90;;;;;;5011135;28;20070;-73
2021/07/20 03:06:35;;;;;;;20.85;10.57;;;16.50;99.90;;;;;;5012509;28;20073;-73
2021/07/20 03:09:02;;;;;;;20.90;10.90;;;16.60;99.90;;;;;;4994623;28;20049;-73
2021/07/20 03:11:34;;;;;;;20.60;10.27;;;16.40;99.90;;;;;;5012188;28;20427;-73
2021/07/20 03:14:08;;;;;;;18.23;9.20;;;16.40;99.90;;;;;;5010703;28;20030;-73
2021/07/20 03:16:37;;;;;;;20.45;10.13;;;16.30;99.90;;;;;;5012339;28;20034;-73
2021/07/20 03:19:07;;;;;;;16.15;10.15;;;16.30;99.90;;;;;;4994625;28;20483;-73
2021/07/20 03:21:34;;;;;;;17.92;11.13;;;16.00;99.90;;;;;;5010943;28;20026;-73
2021/07/20 03:24:03;;;;;;;18.20;10.55;;;15.60;99.90;;;;;;5010739;28;20394;-73
2021/07/20 03:26:29;;;;;;;19.00;10.80;;;15.40;99.90;;;;;;5011181;28;20034;-73
2021/07/20 03:28:56;;;;;;;19.85;10.95;;;15.40;99.90;;;;;;5010484;28;20049;-73
2021/07/20 03:31:23;;;;;;;20.73;10.98;;;15.40;99.90;;;;;;5011084;28;20022;-73
2021/07/20 03:33:50;;;;;;;15.43;9.63;;;15.60;99.90;;;;;;5011775;28;20041;-73
2021/07/20 03:36:17;;;;;;;19.52;10.73;;;15.80;99.90;;;;;;5010854;28;20490;-73
2021/07/20 03:38:44;;;;;;;18.42;9.75;;;15.80;99.90;;;;;;5010779;28;20386;-73
2021/07/20 03:41:11;;;;;;;18.27;10.23;;;15.80;99.90;;;;;;5010603;28;20034;-73
2021/07/20 03:43:38;;;;;;;20.10;10.85;;;15.90;99.90;;;;;;5010306;28;20100;-73
2021/07/20 03:46:04;;;;;;;21.38;9.88;;;16.00;99.90;;;;;;5014418;28;20112;-73
2021/07/20 03:48:31;;;;;;;19.85;11.63;;;16.00;99.90;;;;;;4998429;28;20061;-73
2021/07/20 03:50:57;;;;;;;24.63;11.52;;;16.00;99.90;;;;;;5015400;28;20461;-73
2021/07/20 03:53:28;;;;;;;17.30;10.63;;;15.90;99.90;;;;;;5014516;28;20114;-73
2021/07/20 03:55:58;;;;;;;20.55;9.88;;;16.00;99.90;;;;;;5014241;28;20048;-73
2021/07/20 03:58:24;;;;;;;22.63;11.07;;;15.80;99.90;;;;;;5015994;28;20029;-73
2021/07/20 04:00:52;;;;;;;17.42;10.32;;;15.90;99.90;;;;;;5014065;28;20084;-73
2021/07/20 04:03:21;;;;;;;19.08;10.77;;;15.80;99.90;;;;;;5013927;28;20030;-73
2021/07/20 04:05:52;;;;;;;19.15;10.05;;;15.80;99.90;;;;;;4998266;28;20489;-73
2021/07/20 04:08:19;;;;;;;22.20;11.30;;;15.40;99.90;;;;;;5015362;28;20030;-73
2021/07/20 04:10:47;;;;;;;16.77;9.60;;;15.60;99.90;;;;;;5014380;28;20040;-73
2021/07/20 04:13:14;;;;;;;21.80;10.07;;;15.50;99.90;;;;;;5014059;28;20113;-73
2021/07/20 04:15:48;;;;;;;23.02;11.52;;;15.50;99.90;;;;;;5014221;28;20030;-73
2021/07/20 04:18:15;;;;;;;28.52;11.55;;;15.60;99.90;;;;;;5014013;28;20492;-73
2021/07/20 04:20:43;;;;;;;16.65;10.20;;;15.70;99.90;;;;;;5015149;28;20034;-72
2021/07/20 04:23:09;;;;;;;20.20;10.68;;;15.80;99.90;;;;;;4997501;28;20030;-72
2021/07/20 04:25:37;;;;;;;18.48;10.93;;;15.80;99.90;;;;;;5015166;28;20034;-72
2021/07/20 04:28:05;;;;;;;18.42;10.00;;;15.90;99.90;;;;;;5013564;28;20034;-73
2021/07/20 04:30:36;;;;;;;21.15;10.43;;;15.90;99.90;;;;;;5013619;28;20468;-73
2021/07/20 04:33:02;;;;;;;20.42;10.60;;;15.80;99.90;;;;;;5014023;28;20037;-72
2021/07/20 04:35:29;;;;;;;20.70;11.38;;;15.90;99.90;;;;;;5013522;28;20056;-72
2021/07/20 04:37:55;;;;;;;27.45;11.38;;;15.90;99.90;;;;;;5013470;28;20479;-72
2021/07/20 04:40:22;;;;;;;19.63;10.43;;;16.00;99.90;;;;;;5013835;28;20049;-73
2021/07/20 04:42:49;;;;;;;20.40;11.45;;;16.00;99.90;;;;;;5014272;28;20509;-72
2021/07/20 04:45:16;;;;;;;20.98;10.77;;;16.10;99.90;;;;;;5013463;28;20096;-73
2021/07/20 04:47:43;;;;;;;20.42;11.70;;;16.00;99.90;;;;;;5014439;28;20034;-72
2021/07/20 04:50:13;;;;;;;20.60;11.35;;;16.10;99.90;;;;;;5013532;28;20034;-73
2021/07/20 04:52:41;;;;;;;19.52;10.73;;;16.10;99.90;;;;;;5014518;28;20108;-72
2021/07/20 04:55:09;;;;;;;18.70;11.32;;;16.10;99.90;;;;;;5014130;28;20022;-73
2021/07/20 04:57:36;;;;;;;22.42;11.95;;;16.10;99.90;;;;;;5014341;28;20034;-73
2021/07/20 05:00:08;;;;;;;20.70;11.40;;;16.00;99.90;;;;;;5014147;28;20030;-73
2021/07/20 05:02:39;;;;;;;23.65;11.63;;;16.10;99.90;;;;;;5014342;28;20033;-73
2021/07/20 05:05:07;;;;;;;22.30;11.27;;;16.20;99.90;;;;;;5013192;28;20038;-72
2021/07/20 05:07:35;;;;;;;15.80;10.13;;;16.10;99.90;;;;;;5013179;28;20033;-72
2021/07/20 05:10:01;;;;;;;18.38;10.68;;;16.30;99.90;;;;;;5014301;28;20033;-73
2021/07/20 05:12:28;;;;;;;19.27;11.05;;;16.20;99.90;;;;;;5014190;28;20408;-73
2021/07/20 05:14:54;;;;;;;17.42;10.30;;;16.30;99.90;;;;;;5012557;28;20034;-73
2021/07/20 05:17:22;;;;;;;17.10;10.00;;;16.30;99.90;;;;;;5012703;28;20059;-73
2021/07/20 05:19:48;;;;;;;18.33;10.68;;;16.30;99.90;;;;;;5012529;28;20144;-73
2021/07/20 05:22:18;;;;;;;23.77;9.93;;;16.40;99.90;;;;;;4996247;28;20486;-73
2021/07/20 05:24:44;;;;;;;19.17;9.82;;;16.50;99.90;;;;;;5012857;28;20126;-64
2021/07/20 05:27:11;;;;;;;19.50;10.00;;;16.50;99.90;;;;;;5013504;28;20124;-66
2021/07/20 05:29:37;;;;;;;20.52;11.20;;;16.60;99.90;;;;;;5012704;28;20440;-68
2021/07/20 05:32:04;;;;;;;24.50;13.00;;;16.70;99.90;;;;;;5012437;28;20034;-67
2021/07/20 05:34:30;;;;;;;21.15;11.23;;;16.80;99.90;;;;;;5012764;28;20034;-70
2021/07/20 05:36:57;;;;;;;22.92;14.20;;;16.90;99.90;;;;;;5013276;28;20047;-67
2021/07/20 05:39:24;;;;;;;20.13;11.93;;;16.90;99.90;;;;;;5029348;28;20049;-64
2021/07/20 05:41:51;;;;;;;18.42;11.45;;;16.70;99.90;;;;;;5031118;28;20045;-78
2021/07/20 05:44:17;;;;;;;20.90;11.30;;;16.80;99.90;;;;;;5035006;28;20049;-79
2021/07/20 05:46:44;;;;;;;22.25;10.38;;;16.70;99.90;;;;;;5031250;28;20025;-73
2021/07/20 05:49:11;;;;;;;20.38;11.27;;;16.80;99.90;;;;;;5032992;28;20493;-78
2021/07/20 05:51:38;;;;;;;16.75;10.25;;;17.00;99.90;;;;;;5031744;28;20072;-78
2021/07/20 05:54:08;;;;;;;21.83;10.77;;;17.10;99.90;;;;;;5032699;28;20032;-74
2021/07/20 05:56:36;;;;;;;22.70;10.88;;;17.20;99.90;;;;;;5031816;28;20033;-77
2021/07/20 05:59:03;;;;;;;20.40;10.70;;;17.20;99.90;;;;;;5032731;28;20037;-76
2021/07/20 06:01:29;;;;;;;18.63;10.20;;;17.30;99.90;;;;;;5032747;28;20041;-76
2021/07/20 06:04:00;;;;;;;17.65;9.52;;;17.20;99.90;;;;;;5031241;28;20044;-74
2021/07/20 06:06:28;;;;;;;18.08;10.80;;;17.30;99.90;;;;;;5031630;28;20422;-77
2021/07/20 06:09:02;;;;;;;14.20;8.77;;;17.50;99.90;;;;;;5043147;28;20474;-70
2021/07/20 06:11:30;;;;;;;18.75;9.70;;;17.60;99.90;;;;;;5052859;28;20033;-73
2021/07/20 06:13:57;;;;;;;17.95;9.30;;;17.70;99.90;;;;;;5051582;28;20032;-77
2021/07/20 06:16:26;;;;;;;19.15;10.45;;;17.70;99.90;;;;;;5052816;28;20029;-77
2021/07/20 06:18:52;;;;;;;21.45;11.93;;;17.60;99.90;;;;;;5052793;28;20029;-77
2021/07/20 06:21:22;;;;;;;20.90;10.50;;;17.70;99.90;;;;;;5051202;28;20474;-77
2021/07/20 06:23:51;;;;;;;18.55;10.27;;;17.70;99.90;;;;;;5051361;28;20045;-77
2021/07/20 06:26:21;;;;;;;15.43;9.90;;;17.80;99.90;;;;;;5051286;28;20025;-76
2021/07/20 06:28:48;;;;;;;16.15;9.85;;;17.80;99.90;;;;;;5034535;28;20464;-82
2021/07/20 06:31:19;;;;;;;17.75;9.60;;;17.90;99.90;;;;;;5052082;28;20029;-73
2021/07/20 06:33:46;;;;;;;16.52;9.82;;;18.00;99.90;;;;;;5050988;28;20132;-73
2021/07/20 06:36:17;;;;;;;18.13;9.98;;;18.00;99.90;;;;;;5049669;28;20029;-72
2021/07/20 06:38:44;;;;;;;;;;;18.30;99.90;;;;;;5057533;28;20040;-73
2021/07/20 06:41:11;;;;;;;15.93;9.23;;;18.30;99.90;;;;;;5031082;28;19982;-72
2021/07/20 06:43:40;;;;;;;17.73;10.00;;;18.40;99.90;;;;;;5031063;28;20046;-74
2021/07/20 06:46:08;;;;;;;17.90;9.40;;;18.40;99.90;;;;;;5030797;28;20470;-74
2021/07/20 06:48:38;;;;;;;18.60;9.05;;;18.50;99.90;;;;;;5030940;28;20034;-72
2021/07/20 06:51:05;;;;;;;18.02;9.23;;;18.60;99.90;;;;;;5031237;28;20474;-75
2021/07/20 06:53:34;;;;;;;17.05;8.98;;;18.60;99.90;;;;;;5032361;28;20034;-75
2021/07/20 06:56:04;;;;;;;17.02;9.65;;;18.70;99.90;;;;;;5032007;28;20029;-75
2021/07/20 06:58:32;;;;;;;18.50;9.43;;;18.80;99.90;;;;;;5031141;28;20037;-76
2021/07/20 07:01:02;;;;;;;16.85;10.40;;;18.90;99.90;;;;;;5030805;28;20025;-76
2021/07/20 07:03:40;;;;;;;16.45;9.30;;;18.90;99.90;;;;;;5031307;28;20091;-76
2021/07/20 07:06:09;;;;;;;16.00;8.82;;;18.90;99.90;;;;;;5031181;28;20033;-74
2021/07/20 07:08:37;;;;;;;18.45;10.05;;;19.00;99.90;;;;;;5027154;28;20506;-74
2021/07/20 07:11:03;;;;;;;16.58;8.98;;;19.10;99.90;;;;;;5012391;28;20529;-74
2021/07/20 07:13:32;;;;;;;15.77;9.63;;;19.20;99.90;;;;;;5010917;28;20064;-76
2021/07/20 07:15:59;;;;;;;14.73;8.68;;;19.20;99.90;;;;;;5013700;28;20495;-76
2021/07/20 07:18:25;;;;;;;20.25;8.73;;;19.20;99.90;;;;;;5031003;28;20037;-77
2021/07/20 07:20:54;;;;;;;20.20;8.90;;;19.30;99.90;;;;;;5034564;28;20025;-76
2021/07/20 07:23:20;;;;;;;16.80;8.75;;;19.30;99.90;;;;;;5034806;28;20057;-72
2021/07/20 07:25:49;;;;;;;18.67;9.55;;;19.40;99.90;;;;;;5031146;28;20029;-76
2021/07/20 07:28:20;;;;;;;18.60;9.00;;;19.60;99.90;;;;;;5016005;28;20077;-75
2021/07/20 07:30:51;;;;;;;19.02;9.35;;;19.60;99.90;;;;;;4998667;28;20034;-75
2021/07/20 07:33:18;;;;;;;14.95;8.63;;;19.50;99.90;;;;;;5014418;28;20399;-75
2021/07/20 07:35:46;;;;;;;15.55;8.30;;;19.40;99.90;;;;;;5014782;28;20034;-75
2021/07/20 07:38:16;;;;;;;15.30;8.80;;;19.60;99.90;;;;;;5014525;28;20454;-74
2021/07/20 07:40:45;;;;;;;14.77;8.18;;;19.70;99.90;;;;;;5014803;28;20025;-74
2021/07/20 07:43:14;;;;;;;16.52;8.52;;;19.70;99.90;;;;;;5028491;28;20486;-75
2021/07/20 07:45:42;;;;;;;21.38;8.73;;;19.80;99.90;;;;;;5035720;28;20084;-79
2021/07/20 07:48:07;;;;;;;18.17;8.85;;;19.90;99.90;;;;;;5034317;28;20041;-72
2021/07/20 07:50:34;;;;;;;18.85;9.95;;;20.10;99.90;;;;;;5034379;28;20383;-71
2021/07/20 07:53:00;;;;;;;15.57;8.85;;;19.90;99.90;;;;;;5017376;28;20041;-70
2021/07/20 07:55:27;;;;;;;18.42;8.93;;;19.60;99.90;;;;;;5049734;28;20125;-71
2021/07/20 07:57:53;;;;;;;13.68;8.73;;;19.90;99.90;;;;;;5053661;28;20478;-71
2021/07/20 08:00:19;;;;;;;15.60;8.40;;;20.10;99.90;;;;;;5053619;28;20040;-72
2021/07/20 08:02:51;;;;;;;15.43;8.10;;;20.20;99.90;;;;;;5054036;28;20120;-73
2021/07/20 08:05:20;;;;;;;15.43;8.43;;;20.30;99.90;;;;;;5037588;28;20025;-74
2021/07/20 08:07:46;;;;;;;14.73;8.77;;;20.20;99.90;;;;;;5053890;28;20029;-66
2021/07/20 08:10:13;;;;;;;15.63;8.70;;;20.10;99.90;;;;;;5014657;28;20032;-66
2021/07/20 08:12:41;;;;;;;16.08;8.30;;;20.30;99.90;;;;;;5015120;28;20033;-66
2021/07/20 08:15:08;;;;;;;17.75;8.65;;;20.60;99.90;;;;;;5015164;28;20026;-66
2021/07/20 08:17:34;;;;;;;16.08;8.68;;;20.80;99.90;;;;;;5013260;28;20467;-64
2021/07/20 08:20:01;;;;;;;15.95;7.88;;;20.70;99.90;;;;;;5013955;28;20026;-65
2021/07/20 08:22:30;;;;;;;16.13;8.27;;;20.70;99.90;;;;;;5013103;28;20844;-65
2021/07/20 08:25:14;;;;;;;17.42;8.25;;;20.80;99.90;;;;;;5014009;28;20038;-65
2021/07/20 08:27:58;;;;;;;17.90;8.68;;;21.00;99.90;;;;;;5013900;28;20034;-65
2021/07/20 08:30:25;;;;;;;16.27;7.72;;;21.20;99.90;;;;;;5013560;28;20034;-66
2021/07/20 08:33:00;;;;;;;16.77;8.15;;;21.30;99.90;;;;;;5013767;28;20030;-65
2021/07/20 08:35:30;;;;;;;17.85;8.27;;;21.40;99.90;;;;;;5013597;28;20036;-65
2021/07/20 08:38:05;;;;;;;15.45;7.90;;;21.40;99.90;;;;;;5013764;28;20065;-65
2021/07/20 08:40:49;;;;;;;16.55;7.85;;;21.40;99.90;;;;;;5013604;28;20055;-65
2021/07/20 08:43:55;;;;;;;15.02;8.27;;;20.90;99.90;;;;;;5014236;28;20054;-65
2021/07/20 08:47:04;;;;;;;14.52;7.80;;;21.20;99.90;;;;;;5014202;28;20176;-64
2021/07/20 08:50:02;;;;;;;15.70;7.82;;;21.70;99.90;;;;;;5014635;28;20056;-66
2021/07/20 08:53:07;;;;;;;12.35;7.72;;;22.00;99.90;;;;;;5014854;28;20490;-66
2021/07/20 08:55:39;;;;;;;13.07;8.05;;;22.30;99.90;;;;;;5003554;28;20046;-65
2021/07/20 08:58:24;;;;;;;12.85;7.72;;;22.30;99.90;;;;;;4997179;28;20030;-64
2021/07/20 09:01:01;;;;;;;18.58;8.05;;;22.40;99.90;;;;;;5013316;28;20034;-66
2021/07/20 09:04:06;;;;;;;14.57;7.85;;;22.30;99.30;;;;;;5005757;28;20096;-66
2021/07/20 09:06:51;;;;;;;14.70;7.35;;;22.30;99.50;;;;;;5014351;28;20063;-63
2021/07/20 09:09:36;;;;;;;13.18;7.55;;;22.60;98.80;;;;;;5013950;28;20117;-64
2021/07/20 09:12:26;;;;;;;16.38;7.93;;;22.60;99.00;;;;;;5012892;28;20036;-65
2021/07/20 09:15:09;;;;;;;13.15;6.88;;;22.70;98.90;;;;;;4997468;28;20029;-63
2021/07/20 09:17:53;;;;;;;15.98;7.93;;;22.80;98.60;;;;;;5012839;28;20483;-64
2021/07/20 09:20:31;;;;;;;16.98;7.65;;;22.90;97.70;;;;;;5013846;28;20432;-64
2021/07/20 09:23:14;;;;;;;17.95;8.38;;;22.90;98.00;;;;;;5013944;28;20030;-66
2021/07/20 09:26:05;;;;;;;15.85;8.13;;;22.80;97.50;;;;;;5013042;28;20061;-66
2021/07/20 09:28:45;;;;;;;16.73;7.75;;;22.70;98.00;;;;;;5012331;28;20565;-66
2021/07/20 09:31:37;;;;;;;11.65;6.78;;;22.70;97.60;;;;;;5013897;28;20037;-65
2021/07/20 09:34:40;;;;;;;13.30;7.88;;;23.00;97.80;;;;;;5045761;28;20037;-67
2021/07/20 09:37:16;;;;;;;17.15;7.75;;;23.30;96.80;;;;;;5052794;28;20033;-65
2021/07/20 09:39:55;;;;;;;11.13;6.55;;;23.60;96.10;;;;;;5051800;28;20103;-66
2021/07/20 09:42:44;;;;;;;13.15;7.28;;;23.60;95.70;;;;;;5050298;28;20069;-65
2021/07/20 09:45:19;;;;;;;13.63;7.22;;;23.40;95.80;;;;;;5011196;28;20053;-64
2021/07/20 09:48:23;;;;;;;12.85;6.82;;;23.40;95.50;;;;;;5011659;28;20042;-65
2021/07/20 09:51:16;;;;;;;12.52;7.88;;;23.40;95.70;;;;;;5011596;28;20041;-65
2021/07/20 09:54:36;;;;;;;10.98;6.85;;;23.40;95.60;;;;;;5000853;28;20042;-66
2021/07/20 09:57:24;;;;;;;15.32;7.53;;;23.40;95.50;;;;;;5011008;28;20073;-64
2021/07/20 09:59:54;;;;;;;11.32;6.88;;;23.50;94.50;;;;;;5011202;28;20534;-65
2021/07/20 10:03:02;;;;;;;17.40;5.93;;;23.30;94.80;;;;;;5015920;28;20037;-65
2021/07/20 10:05:51;;;;;;;12.88;7.45;;;23.30;94.90;;;;;;5052163;28;20087;-65
2021/07/20 10:08:43;;;;;;;12.88;7.03;;;23.40;95.10;;;;;;5051964;28;20466;-64
2021/07/20 10:11:11;;;;;;;14.10;7.32;;;23.40;94.10;;;;;;5044872;28;20474;-65
2021/07/20 10:14:03;;;;;;;14.02;6.80;;;23.70;94.00;;;;;;5052024;28;20357;-64
2021/07/20 10:17:18;;;;;;;11.30;6.88;;;23.60;93.50;;;;;;5050587;28;20029;-64
2021/07/20 10:20:01;;;;;;;13.23;6.35;;;23.80;93.60;;;;;;5051440;28;20386;-64
2021/07/20 10:22:40;;;;;;;12.68;6.65;;;23.70;93.90;;;;;;5050439;28;20175;-65
2021/07/20 10:25:22;;;;;;;10.80;6.15;;;23.70;93.90;;;;;;5050462;28;20114;-64
2021/07/20 10:28:11;;;;;;;14.20;6.80;;;23.90;93.90;;;;;;5051931;28;20386;-64
2021/07/20 10:30:42;;;;;;;11.07;6.72;;;23.80;93.40;;;;;;5035057;28;20032;-65
2021/07/20 10:33:18;;;;;;;14.00;6.88;;;23.80;93.10;;;;;;5032209;28;20430;-76
2021/07/20 10:35:50;;;;;;;14.18;6.40;;;23.50;93.10;;;;;;5011013;28;20038;-70
2021/07/20 10:38:21;;;;;;;14.73;7.28;;;23.50;93.30;;;;;;4994163;28;20521;-73
2021/07/20 10:40:51;;;;;;;12.23;6.68;;;23.90;92.40;;;;;;5012220;28;20030;-76
2021/07/20 10:43:37;;;;;;;12.40;7.13;;;24.10;92.30;;;;;;4960017;28;1467286;-75
2021/07/20 10:46:06;;;;;;;11.70;6.70;;;23.90;92.70;;;;;;5011268;28;20041;-75
2021/07/20 10:48:41;;;;;;;14.52;7.15;;;24.50;92.40;;;;;;4995011;28;20053;-73
2021/07/20 10:51:29;;;;;;;12.60;6.43;;;24.60;92.30;;;;;;5011348;28;20038;-73
2021/07/20 10:53:58;;;;;;;13.52;7.35;;;24.70;92.40;;;;;;5011834;28;20396;-73
2021/07/20 10:57:01;;;;;;;12.20;6.13;;;24.80;91.20;;;;;;5011297;28;20080;-73
2021/07/20 11:00:05;;;;;;;14.05;6.40;;;24.60;91.90;;;;;;5011255;28;20040;-73
2021/07/20 11:02:59;;;;;;;14.60;6.18;;;24.60;91.70;;;;;;5030964;28;20037;-72
2021/07/20 11:05:28;;;;;;;10.82;6.00;;;24.60;91.50;;;;;;5031909;28;20382;-75
2021/07/20 11:08:07;;;;;;;12.98;6.30;;;24.80;91.40;;;;;;5031912;28;20033;-76
2021/07/20 11:10:48;;;;;;;11.80;6.45;;;25.00;91.30;;;;;;5031847;28;20401;-73
2021/07/20 11:13:22;;;;;;;9.82;6.10;;;25.10;90.80;;;;;;5030479;28;20399;-72
2021/07/20 11:15:54;;;;;;;13.43;8.32;;;24.90;90.70;;;;;;5030988;28;20087;-72
2021/07/20 11:18:26;;;;;;;12.52;6.50;;;24.80;91.20;;;;;;5030902;28;20035;-73
2021/07/20 11:20:56;;;;;;;10.52;6.22;;;25.10;89.40;;;;;;5030524;28;20025;-72
2021/07/20 11:23:24;;;;;;;12.27;6.90;;;24.80;90.60;;;;;;5031814;28;20112;-77
2021/07/20 11:25:50;;;;;;;14.68;6.60;;;25.10;90.50;;;;;;5030537;28;20116;-75
2021/07/20 11:28:18;;;;;;;11.20;5.95;;;25.10;90.80;;;;;;5013866;28;20033;-74
2021/07/20 11:30:47;;;;;;;12.48;6.35;;;25.30;91.10;;;;;;5032043;28;20034;-76
2021/07/20 11:33:32;;;;;;;11.60;7.03;;;25.20;90.40;;;;;;5030702;28;20076;-74
2021/07/20 11:36:00;;;;;;;11.48;6.70;;;25.10;90.10;;;;;;5030489;28;20056;-72
2021/07/20 11:38:31;;;;;;;13.02;6.78;;;24.50;90.40;;;;;;5030512;28;20041;-75
2021/07/20 11:41:04;;;;;;;10.38;6.35;;;24.70;91.20;;;;;;5029966;28;20030;-74
2021/07/20 11:43:37;;;;;;;11.00;6.22;;;24.90;90.70;;;;;;5013775;28;20134;-73
2021/07/20 11:46:10;;;;;;;12.05;6.10;;;25.50;90.00;;;;;;5012136;28;20038;-73
2021/07/20 11:49:03;;;;;;;10.75;5.85;;;25.30;88.00;;;;;;5010416;28;20517;-73
2021/07/20 11:51:39;;;;;;;11.02;5.90;;;25.40;88.50;;;;;;5016876;28;20386;-73
2021/07/20 11:54:20;;;;;;;15.20;6.60;;;25.90;87.50;;;;;;5011888;28;20030;-72
2021/07/20 11:56:58;;;;;;;10.40;5.93;;;25.90;86.60;;;;;;5010880;28;20038;-73
2021/07/20 11:59:52;;;;;;;12.25;5.85;;;26.00;87.30;;;;;;5010397;28;20026;-73
2021/07/20 12:03:08;;;;;;;11.65;6.70;;;25.80;87.50;;;;;;5010599;28;20034;-73
2021/07/20 12:05:43;;;;;;;12.40;7.93;;;25.50;87.80;;;;;;5012958;28;20038;-72
2021/07/20 12:08:38;;;;;;;10.10;6.35;;;25.80;87.40;;;;;;5015278;28;20045;-72
2021/07/20 12:11:21;;;;;;;11.60;5.95;;;25.70;87.10;;;;;;5014101;28;20080;-73
2021/07/20 12:13:49;;;;;;;11.15;5.88;;;25.90;86.10;;;;;;5015032;28;20046;-72
2021/07/20 12:16:16;;;;;;;14.18;6.10;;;26.00;85.70;;;;;;5015138;28;20059;-73
2021/07/20 12:18:54;;;;;;;13.65;6.28;;;26.30;84.10;;;;;;5014586;28;20486;-74
2021/07/20 12:21:22;;;;;;;13.50;6.30;;;26.60;85.00;;;;;;5014646;28;20080;-74
2021/07/20 12:23:52;;;;;;;10.85;6.43;;;26.40;83.60;;;;;;5013921;28;20038;-73
2021/07/20 12:26:24;;;;;;;10.85;5.97;;;26.40;85.40;;;;;;5013404;28;20030;-73
2021/07/20 12:28:50;;;;;;;13.50;7.00;;;26.80;85.00;;;;;;5014795;28;20033;-73
2021/07/20 12:31:17;;;;;;;9.30;6.18;;;27.00;83.10;;;;;;5014560;28;20033;-73
2021/07/20 12:33:48;;;;;;;9.93;6.25;;;26.90;82.10;;;;;;5014706;28;20041;-73
2021/07/20 12:36:15;;;;;;;9.90;5.78;;;27.10;81.70;;;;;;5013404;28;20459;-73
2021/07/20 12:38:42;;;;;;;14.20;6.13;;;27.20;80.20;;;;;;5014854;28;20038;-73
2021/07/20 12:41:14;;;;;;;10.20;5.25;;;26.80;80.50;;;;;;5013670;28;20034;-73
2021/07/20 12:43:43;;;;;;;12.52;6.47;;;27.10;80.30;;;;;;5014353;28;20185;-73
2021/07/20 12:46:18;;;;;;;11.02;6.30;;;27.20;80.30;;;;;;5014535;28;20479;-74
2021/07/20 12:48:49;;;;;;;11.93;5.72;;;27.40;80.40;;;;;;5014552;28;20049;-73
2021/07/20 12:51:19;;;;;;;8.80;5.32;;;27.20;79.50;;;;;;5013711;28;20387;-74
2021/07/20 12:53:50;;;;;;;9.95;6.05;;;27.30;80.50;;;;;;5014623;28;20080;-73
2021/07/20 12:56:30;;;;;;;11.68;6.15;;;27.00;80.00;;;;;;5014704;28;20041;-73
2021/07/20 12:59:07;;;;;;;8.75;5.55;;;27.50;79.70;;;;;;5013253;28;20152;-74
2021/07/20 13:01:36;;;;;;;8.68;5.72;;;27.70;79.30;;;;;;5013955;28;20046;-73
2021/07/20 13:04:04;;;;;;;9.75;5.82;;;27.20;80.30;;;;;;5014534;28;20088;-74
2021/07/20 13:06:39;;;;;;;8.68;5.38;;;27.30;78.50;;;;;;5014198;28;20584;-74
2021/07/20 13:09:07;;;;;;;9.63;5.65;;;27.70;79.40;;;;;;5013918;28;20084;-73
2021/07/20 13:11:40;;;;;;;12.80;6.32;;;27.90;78.50;;;;;;5013630;28;20037;-75
2021/07/20 13:14:07;;;;;;;11.40;6.03;;;27.80;78.50;;;;;;5032490;28;20036;-74
2021/07/20 13:16:34;;;;;;;8.32;5.47;;;27.30;78.30;;;;;;5032551;28;20690;-74
2021/07/20 13:19:03;;;;;;;14.77;6.40;;;27.70;78.70;;;;;;5033898;28;20108;-74
2021/07/20 13:21:29;;;;;;;11.30;5.20;;;27.30;78.40;;;;;;5033586;28;20033;-74
2021/07/20 13:23:57;;;;;;;13.27;5.88;;;27.40;78.80;;;;;;5033294;28;20029;-74
2021/07/20 13:26:30;;;;;;;10.10;6.30;;;27.50;78.20;;;;;;5033647;28;20095;-73
2021/07/20 13:28:59;;;;;;;11.38;6.32;;;27.60;78.10;;;;;;5033581;28;20502;-74
2021/07/20 13:31:30;;;;;;;8.40;5.57;;;28.10;78.50;;;;;;5033542;28;20029;-74
2021/07/20 13:33:57;;;;;;;8.23;5.75;;;28.30;76.30;;;;;;5033678;28;20061;-74
2021/07/20 13:36:24;;;;;;;8.82;5.60;;;28.00;77.20;;;;;;5032998;28;20040;-73
2021/07/20 13:38:53;;;;;;;8.20;5.95;;;28.10;76.90;;;;;;5031977;28;20486;-73
2021/07/20 13:41:21;;;;;;;8.68;5.32;;;28.30;76.30;;;;;;5033053;28;20040;-73
2021/07/20 13:43:49;;;;;;;10.20;6.22;;;28.80;75.00;;;;;;5017343;28;20080;-74
2021/07/20 13:46:18;;;;;;;9.88;5.45;;;29.00;74.80;;;;;;5032749;28;20033;-73
2021/07/20 13:48:46;;;;;;;12.32;6.00;;;28.70;74.40;;;;;;5031577;28;20026;-73